Terminal Aerodrome Forecast
Issued by NWS

Home | Current Version | Previous Version | Text Only | Print | Product List | Glossary On
Versions: 1 2 3 4 5 6 7 8 9 10 11 12 13 14 15 16 17 18 19
699
FTUS41 KGYX 250909 AAA
TAFHIE
TAF AMD
KHIE 250909Z 2509/2606 VRB03KT P6SM SCT250 WS020/23040KT
     FM251700 VRB03KT P6SM SCT060 BKN080
     FM252200 00000KT P6SM -SHRA BKN045 OVC060=

USA.gov is the U.S. government's official web portal to all federal, state and local government web resources and services.